Terminal Aerodrome Forecast
Issued by NWS

Home | Current Version | Previous Version | Text Only | Print | Product List | Glossary On
Versions: 1 2 3 4 5 6 7 8 9 10 11 12 13
000
FTUS42 KGSP 050521
TAFGMU
TAF
KGMU 050521Z 0506/0606 21003KT P6SM BKN090
     FM050900 20003KT P6SM SCT090
     FM051800 17006KT P6SM SCT060
     FM060000 18003KT P6SM FEW060=

USA.gov is the U.S. government's official web portal to all federal, state and local government web resources and services.